sensor_id;sensor_type;location;lat;lon;timestamp;P1;durP1;ratioP1;P2;durP2;ratioP2
23470;SDS011;11908;50.806;4.424;2023-08-21T00:00:53;13.73;;;1.90;;
23470;SDS011;11908;50.806;4.424;2023-08-21T00:03:19;7.72;;;1.60;;
23470;SDS011;11908;50.806;4.424;2023-08-21T00:05:45;11.50;;;2.00;;
23470;SDS011;11908;50.806;4.424;2023-08-21T00:08:10;7.28;;;2.17;;
23470;SDS011;11908;50.806;4.424;2023-08-21T00:10:39;8.50;;;1.92;;
23470;SDS011;11908;50.806;4.424;2023-08-21T00:13:06;6.78;;;1.85;;
23470;SDS011;11908;50.806;4.424;2023-08-21T00:15:31;10.25;;;1.90;;
23470;SDS011;11908;50.806;4.424;2023-08-21T00:17:57;7.85;;;2.10;;
23470;SDS011;11908;50.806;4.424;2023-08-21T00:20:23;6.00;;;1.67;;
23470;SDS011;11908;50.806;4.424;2023-08-21T00:22:49;8.45;;;2.15;;
23470;SDS011;11908;50.806;4.424;2023-08-21T00:25:14;8.43;;;2.30;;
23470;SDS011;11908;50.806;4.424;2023-08-21T00:27:40;5.47;;;1.60;;
23470;SDS011;11908;50.806;4.424;2023-08-21T00:30:06;7.28;;;1.75;;
23470;SDS011;11908;50.806;4.424;2023-08-21T00:32:32;3.90;;;1.40;;
23470;SDS011;11908;50.806;4.424;2023-08-21T00:34:57;6.13;;;1.88;;
23470;SDS011;11908;50.806;4.424;2023-08-21T00:37:23;8.45;;;2.00;;
23470;SDS011;11908;50.806;4.424;2023-08-21T00:39:49;5.22;;;1.73;;
23470;SDS011;11908;50.806;4.424;2023-08-21T00:42:14;5.63;;;1.70;;
23470;SDS011;11908;50.806;4.424;2023-08-21T00:44:40;6.45;;;1.63;;
23470;SDS011;11908;50.806;4.424;2023-08-21T00:47:06;5.05;;;2.03;;
23470;SDS011;11908;50.806;4.424;2023-08-21T00:49:32;6.30;;;1.83;;
23470;SDS011;11908;50.806;4.424;2023-08-21T00:51:58;5.57;;;1.50;;
23470;SDS011;11908;50.806;4.424;2023-08-21T00:54:24;5.60;;;1.42;;
23470;SDS011;11908;50.806;4.424;2023-08-21T00:56:50;6.43;;;1.60;;
23470;SDS011;11908;50.806;4.424;2023-08-21T00:59:17;10.00;;;1.63;;
23470;SDS011;11908;50.806;4.424;2023-08-21T01:04:19;4.93;;;1.92;;
23470;SDS011;11908;50.806;4.424;2023-08-21T01:06:45;6.07;;;1.80;;
23470;SDS011;11908;50.806;4.424;2023-08-21T01:17:08;5.32;;;1.50;;
23470;SDS011;11908;50.806;4.424;2023-08-21T01:19:40;5.78;;;1.50;;
23470;SDS011;11908;50.806;4.424;2023-08-21T01:22:07;9.50;;;1.63;;
23470;SDS011;11908;50.806;4.424;2023-08-21T01:24:33;4.22;;;1.73;;
23470;SDS011;11908;50.806;4.424;2023-08-21T01:26:59;8.65;;;2.17;;
23470;SDS011;11908;50.806;4.424;2023-08-21T01:29:25;5.30;;;1.40;;
23470;SDS011;11908;50.806;4.424;2023-08-21T01:32:14;9.02;;;2.15;;
23470;SDS011;11908;50.806;4.424;2023-08-21T01:34:43;7.57;;;1.80;;
23470;SDS011;11908;50.806;4.424;2023-08-21T01:37:10;9.73;;;2.00;;
23470;SDS011;11908;50.806;4.424;2023-08-21T01:39:36;6.57;;;1.75;;
23470;SDS011;11908;50.806;4.424;2023-08-21T01:42:02;6.95;;;2.03;;
23470;SDS011;11908;50.806;4.424;2023-08-21T01:44:28;7.30;;;2.35;;
23470;SDS011;11908;50.806;4.424;2023-08-21T01:46:53;5.53;;;1.92;;
23470;SDS011;11908;50.806;4.424;2023-08-21T01:49:19;4.28;;;1.58;;
23470;SDS011;11908;50.806;4.424;2023-08-21T01:51:45;4.55;;;1.92;;
23470;SDS011;11908;50.806;4.424;2023-08-21T01:54:11;8.85;;;2.03;;
23470;SDS011;11908;50.806;4.424;2023-08-21T01:56:37;5.53;;;2.00;;
23470;SDS011;11908;50.806;4.424;2023-08-21T01:59:04;7.38;;;2.45;;
23470;SDS011;11908;50.806;4.424;2023-08-21T02:01:30;9.88;;;2.25;;
23470;SDS011;11908;50.806;4.424;2023-08-21T02:03:55;7.13;;;1.75;;
23470;SDS011;11908;50.806;4.424;2023-08-21T02:06:21;4.00;;;2.10;;
23470;SDS011;11908;50.806;4.424;2023-08-21T02:08:48;8.82;;;2.40;;
23470;SDS011;11908;50.806;4.424;2023-08-21T02:11:14;5.10;;;1.90;;
23470;SDS011;11908;50.806;4.424;2023-08-21T02:13:40;5.32;;;2.03;;
23470;SDS011;11908;50.806;4.424;2023-08-21T02:16:05;5.18;;;1.83;;
23470;SDS011;11908;50.806;4.424;2023-08-21T02:18:31;3.90;;;1.65;;
23470;SDS011;11908;50.806;4.424;2023-08-21T02:20:57;3.92;;;1.77;;
23470;SDS011;11908;50.806;4.424;2023-08-21T02:23:22;8.00;;;2.10;;
23470;SDS011;11908;50.806;4.424;2023-08-21T02:25:49;6.15;;;2.13;;
23470;SDS011;11908;50.806;4.424;2023-08-21T02:28:15;9.25;;;2.17;;
23470;SDS011;11908;50.806;4.424;2023-08-21T02:30:41;10.65;;;2.40;;
23470;SDS011;11908;50.806;4.424;2023-08-21T02:33:07;7.40;;;2.20;;
23470;SDS011;11908;50.806;4.424;2023-08-21T02:35:32;9.02;;;2.35;;
23470;SDS011;11908;50.806;4.424;2023-08-21T02:37:58;9.98;;;2.60;;
23470;SDS011;11908;50.806;4.424;2023-08-21T02:40:24;5.93;;;2.05;;
23470;SDS011;11908;50.806;4.424;2023-08-21T02:42:49;6.38;;;1.73;;
23470;SDS011;11908;50.806;4.424;2023-08-21T02:45:15;5.47;;;1.77;;
23470;SDS011;11908;50.806;4.424;2023-08-21T02:47:41;9.38;;;2.00;;
23470;SDS011;11908;50.806;4.424;2023-08-21T02:50:08;7.05;;;1.80;;
23470;SDS011;11908;50.806;4.424;2023-08-21T02:52:35;6.25;;;1.95;;
23470;SDS011;11908;50.806;4.424;2023-08-21T02:55:01;7.32;;;2.45;;
23470;SDS011;11908;50.806;4.424;2023-08-21T02:57:27;5.10;;;1.70;;
23470;SDS011;11908;50.806;4.424;2023-08-21T02:59:53;3.97;;;1.88;;
23470;SDS011;11908;50.806;4.424;2023-08-21T03:02:20;10.88;;;2.00;;
23470;SDS011;11908;50.806;4.424;2023-08-21T03:04:46;5.22;;;1.67;;
23470;SDS011;11908;50.806;4.424;2023-08-21T03:07:12;4.60;;;1.80;;
23470;SDS011;11908;50.806;4.424;2023-08-21T03:09:38;4.68;;;1.65;;
23470;SDS011;11908;50.806;4.424;2023-08-21T03:12:05;9.02;;;1.55;;
23470;SDS011;11908;50.806;4.424;2023-08-21T03:14:31;6.95;;;2.05;;
23470;SDS011;11908;50.806;4.424;2023-08-21T03:16:57;8.73;;;1.73;;
23470;SDS011;11908;50.806;4.424;2023-08-21T03:19:23;6.90;;;1.88;;
23470;SDS011;11908;50.806;4.424;2023-08-21T03:21:48;6.03;;;1.60;;
23470;SDS011;11908;50.806;4.424;2023-08-21T03:24:14;10.45;;;2.20;;
23470;SDS011;11908;50.806;4.424;2023-08-21T03:26:40;5.53;;;1.98;;
23470;SDS011;11908;50.806;4.424;2023-08-21T03:29:05;7.18;;;1.85;;
23470;SDS011;11908;50.806;4.424;2023-08-21T03:31:31;7.00;;;2.33;;
23470;SDS011;11908;50.806;4.424;2023-08-21T03:33:57;5.97;;;1.77;;
23470;SDS011;11908;50.806;4.424;2023-08-21T03:36:23;4.07;;;1.75;;
23470;SDS011;11908;50.806;4.424;2023-08-21T03:38:57;9.18;;;1.98;;
23470;SDS011;11908;50.806;4.424;2023-08-21T03:41:23;4.65;;;1.95;;
23470;SDS011;11908;50.806;4.424;2023-08-21T03:43:49;5.72;;;1.85;;
23470;SDS011;11908;50.806;4.424;2023-08-21T03:46:14;2.60;;;1.48;;
23470;SDS011;11908;50.806;4.424;2023-08-21T03:48:40;8.43;;;2.22;;
23470;SDS011;11908;50.806;4.424;2023-08-21T03:51:06;8.20;;;2.10;;
23470;SDS011;11908;50.806;4.424;2023-08-21T03:53:32;7.82;;;2.10;;
23470;SDS011;11908;50.806;4.424;2023-08-21T03:55:57;9.75;;;2.03;;
23470;SDS011;11908;50.806;4.424;2023-08-21T03:58:23;10.32;;;2.30;;
23470;SDS011;11908;50.806;4.424;2023-08-21T04:00:50;7.80;;;2.00;;
23470;SDS011;11908;50.806;4.424;2023-08-21T04:03:16;10.73;;;2.40;;
23470;SDS011;11908;50.806;4.424;2023-08-21T04:05:42;9.30;;;2.03;;
23470;SDS011;11908;50.806;4.424;2023-08-21T04:08:07;9.65;;;2.33;;
23470;SDS011;11908;50.806;4.424;2023-08-21T04:10:33;8.13;;;1.88;;
23470;SDS011;11908;50.806;4.424;2023-08-21T04:12:59;6.65;;;2.28;;
23470;SDS011;11908;50.806;4.424;2023-08-21T04:15:25;5.13;;;2.28;;
23470;SDS011;11908;50.806;4.424;2023-08-21T04:17:51;8.63;;;2.33;;
23470;SDS011;11908;50.806;4.424;2023-08-21T04:20:17;8.18;;;1.75;;
23470;SDS011;11908;50.806;4.424;2023-08-21T04:22:45;7.05;;;2.00;;
23470;SDS011;11908;50.806;4.424;2023-08-21T04:25:10;5.82;;;2.00;;
23470;SDS011;11908;50.806;4.424;2023-08-21T04:27:36;5.15;;;2.28;;
23470;SDS011;11908;50.806;4.424;2023-08-21T04:30:02;7.40;;;2.20;;
23470;SDS011;11908;50.806;4.424;2023-08-21T04:32:29;4.95;;;2.80;;
23470;SDS011;11908;50.806;4.424;2023-08-21T04:34:55;8.40;;;3.10;;
23470;SDS011;11908;50.806;4.424;2023-08-21T04:37:21;7.75;;;2.22;;
23470;SDS011;11908;50.806;4.424;2023-08-21T04:39:51;6.20;;;2.00;;
23470;SDS011;11908;50.806;4.424;2023-08-21T04:42:20;7.07;;;2.05;;
23470;SDS011;11908;50.806;4.424;2023-08-21T04:44:46;7.22;;;2.30;;
23470;SDS011;11908;50.806;4.424;2023-08-21T04:47:24;10.05;;;2.53;;
23470;SDS011;11908;50.806;4.424;2023-08-21T04:49:51;6.65;;;2.53;;
23470;SDS011;11908;50.806;4.424;2023-08-21T04:52:18;7.78;;;2.17;;
23470;SDS011;11908;50.806;4.424;2023-08-21T04:54:44;9.23;;;2.00;;
23470;SDS011;11908;50.806;4.424;2023-08-21T04:57:10;5.10;;;2.20;;
23470;SDS011;11908;50.806;4.424;2023-08-21T04:59:36;8.35;;;1.95;;
23470;SDS011;11908;50.806;4.424;2023-08-21T05:02:03;5.10;;;2.17;;
23470;SDS011;11908;50.806;4.424;2023-08-21T05:04:29;9.32;;;2.33;;
23470;SDS011;11908;50.806;4.424;2023-08-21T05:06:54;5.65;;;2.05;;
23470;SDS011;11908;50.806;4.424;2023-08-21T05:09:20;5.85;;;2.47;;
23470;SDS011;11908;50.806;4.424;2023-08-21T05:11:46;7.00;;;2.58;;
23470;SDS011;11908;50.806;4.424;2023-08-21T05:14:11;7.97;;;2.35;;
23470;SDS011;11908;50.806;4.424;2023-08-21T05:16:37;8.38;;;2.00;;
23470;SDS011;11908;50.806;4.424;2023-08-21T05:19:03;6.05;;;1.80;;
23470;SDS011;11908;50.806;4.424;2023-08-21T05:21:28;5.10;;;1.90;;
23470;SDS011;11908;50.806;4.424;2023-08-21T05:23:54;8.00;;;1.98;;
23470;SDS011;11908;50.806;4.424;2023-08-21T05:26:19;7.35;;;2.13;;
23470;SDS011;11908;50.806;4.424;2023-08-21T05:28:45;5.45;;;1.70;;
23470;SDS011;11908;50.806;4.424;2023-08-21T05:31:11;7.13;;;1.85;;
23470;SDS011;11908;50.806;4.424;2023-08-21T05:33:37;4.60;;;1.45;;
23470;SDS011;11908;50.806;4.424;2023-08-21T05:36:02;5.78;;;2.20;;
23470;SDS011;11908;50.806;4.424;2023-08-21T05:38:28;5.22;;;1.65;;
23470;SDS011;11908;50.806;4.424;2023-08-21T05:40:54;6.53;;;1.75;;
23470;SDS011;11908;50.806;4.424;2023-08-21T05:43:20;7.25;;;1.70;;
23470;SDS011;11908;50.806;4.424;2023-08-21T05:45:45;6.28;;;1.20;;
23470;SDS011;11908;50.806;4.424;2023-08-21T05:48:12;5.78;;;1.73;;
23470;SDS011;11908;50.806;4.424;2023-08-21T05:50:37;12.25;;;2.00;;
23470;SDS011;11908;50.806;4.424;2023-08-21T05:53:06;5.75;;;1.60;;
23470;SDS011;11908;50.806;4.424;2023-08-21T05:55:32;4.80;;;1.50;;
23470;SDS011;11908;50.806;4.424;2023-08-21T05:57:57;4.93;;;1.42;;
23470;SDS011;11908;50.806;4.424;2023-08-21T06:00:23;4.80;;;1.52;;
23470;SDS011;11908;50.806;4.424;2023-08-21T06:02:49;6.00;;;2.25;;
23470;SDS011;11908;50.806;4.424;2023-08-21T06:05:14;4.78;;;1.20;;
23470;SDS011;11908;50.806;4.424;2023-08-21T06:07:40;7.30;;;1.40;;
23470;SDS011;11908;50.806;4.424;2023-08-21T06:10:09;8.85;;;1.67;;
23470;SDS011;11908;50.806;4.424;2023-08-21T06:12:40;7.97;;;2.15;;
23470;SDS011;11908;50.806;4.424;2023-08-21T06:15:06;7.00;;;1.63;;
23470;SDS011;11908;50.806;4.424;2023-08-21T06:17:37;6.28;;;2.05;;
23470;SDS011;11908;50.806;4.424;2023-08-21T06:20:03;14.18;;;2.50;;
23470;SDS011;11908;50.806;4.424;2023-08-21T06:22:36;12.88;;;2.33;;
23470;SDS011;11908;50.806;4.424;2023-08-21T06:25:02;12.13;;;2.03;;
23470;SDS011;11908;50.806;4.424;2023-08-21T06:27:28;6.45;;;1.50;;
23470;SDS011;11908;50.806;4.424;2023-08-21T06:29:54;12.57;;;2.20;;
23470;SDS011;11908;50.806;4.424;2023-08-21T06:32:20;8.20;;;2.53;;
23470;SDS011;11908;50.806;4.424;2023-08-21T06:34:45;15.05;;;2.30;;
23470;SDS011;11908;50.806;4.424;2023-08-21T06:37:11;10.70;;;2.35;;
23470;SDS011;11908;50.806;4.424;2023-08-21T06:39:37;10.25;;;2.38;;
23470;SDS011;11908;50.806;4.424;2023-08-21T06:42:04;13.88;;;2.33;;
23470;SDS011;11908;50.806;4.424;2023-08-21T06:44:29;12.63;;;2.67;;
23470;SDS011;11908;50.806;4.424;2023-08-21T06:46:55;12.40;;;3.08;;
23470;SDS011;11908;50.806;4.424;2023-08-21T06:49:21;11.88;;;2.33;;
23470;SDS011;11908;50.806;4.424;2023-08-21T06:51:46;14.27;;;2.85;;
23470;SDS011;11908;50.806;4.424;2023-08-21T06:54:12;11.07;;;2.63;;
23470;SDS011;11908;50.806;4.424;2023-08-21T06:56:38;13.45;;;3.03;;
23470;SDS011;11908;50.806;4.424;2023-08-21T06:59:03;9.43;;;2.60;;
23470;SDS011;11908;50.806;4.424;2023-08-21T07:01:29;12.75;;;2.60;;
23470;SDS011;11908;50.806;4.424;2023-08-21T07:03:55;15.57;;;3.58;;
23470;SDS011;11908;50.806;4.424;2023-08-21T07:06:20;13.05;;;2.83;;
23470;SDS011;11908;50.806;4.424;2023-08-21T07:08:46;12.43;;;2.97;;
23470;SDS011;11908;50.806;4.424;2023-08-21T07:11:12;14.65;;;3.13;;
23470;SDS011;11908;50.806;4.424;2023-08-21T07:13:38;10.15;;;2.17;;
23470;SDS011;11908;50.806;4.424;2023-08-21T07:16:04;13.25;;;3.00;;
23470;SDS011;11908;50.806;4.424;2023-08-21T07:18:31;17.88;;;3.22;;
23470;SDS011;11908;50.806;4.424;2023-08-21T07:20:58;9.15;;;2.67;;
23470;SDS011;11908;50.806;4.424;2023-08-21T07:23:24;11.90;;;2.92;;
23470;SDS011;11908;50.806;4.424;2023-08-21T07:25:50;13.73;;;3.10;;
23470;SDS011;11908;50.806;4.424;2023-08-21T07:28:16;11.93;;;2.35;;
23470;SDS011;11908;50.806;4.424;2023-08-21T07:30:42;11.82;;;3.20;;
23470;SDS011;11908;50.806;4.424;2023-08-21T07:33:07;13.45;;;3.45;;
23470;SDS011;11908;50.806;4.424;2023-08-21T07:35:33;19.17;;;3.22;;
23470;SDS011;11908;50.806;4.424;2023-08-21T07:37:59;10.43;;;2.70;;
23470;SDS011;11908;50.806;4.424;2023-08-21T07:40:24;10.35;;;2.60;;
23470;SDS011;11908;50.806;4.424;2023-08-21T07:42:50;14.55;;;2.90;;
23470;SDS011;11908;50.806;4.424;2023-08-21T07:45:16;14.07;;;3.22;;
23470;SDS011;11908;50.806;4.424;2023-08-21T07:47:42;11.98;;;3.42;;
23470;SDS011;11908;50.806;4.424;2023-08-21T07:50:08;10.18;;;2.85;;
23470;SDS011;11908;50.806;4.424;2023-08-21T07:52:34;16.25;;;3.15;;
23470;SDS011;11908;50.806;4.424;2023-08-21T07:55:00;9.10;;;3.05;;
23470;SDS011;11908;50.806;4.424;2023-08-21T07:57:27;12.75;;;3.10;;
23470;SDS011;11908;50.806;4.424;2023-08-21T07:59:56;9.73;;;3.08;;
23470;SDS011;11908;50.806;4.424;2023-08-21T08:02:22;14.88;;;2.67;;
23470;SDS011;11908;50.806;4.424;2023-08-21T08:04:48;15.40;;;2.67;;
23470;SDS011;11908;50.806;4.424;2023-08-21T08:07:14;13.63;;;3.20;;
23470;SDS011;11908;50.806;4.424;2023-08-21T08:09:40;10.05;;;3.40;;
23470;SDS011;11908;50.806;4.424;2023-08-21T08:12:06;15.10;;;3.30;;
23470;SDS011;11908;50.806;4.424;2023-08-21T08:14:32;8.82;;;3.10;;
23470;SDS011;11908;50.806;4.424;2023-08-21T08:16:58;14.30;;;3.30;;
23470;SDS011;11908;50.806;4.424;2023-08-21T08:19:23;12.07;;;3.00;;
23470;SDS011;11908;50.806;4.424;2023-08-21T08:21:49;15.85;;;3.60;;
23470;SDS011;11908;50.806;4.424;2023-08-21T08:24:15;16.23;;;3.30;;
23470;SDS011;11908;50.806;4.424;2023-08-21T08:26:40;12.40;;;3.85;;
23470;SDS011;11908;50.806;4.424;2023-08-21T08:29:08;14.27;;;3.53;;
23470;SDS011;11908;50.806;4.424;2023-08-21T08:31:34;11.77;;;3.28;;
23470;SDS011;11908;50.806;4.424;2023-08-21T08:33:59;13.32;;;2.88;;
23470;SDS011;11908;50.806;4.424;2023-08-21T08:36:25;6.35;;;2.50;;
23470;SDS011;11908;50.806;4.424;2023-08-21T08:38:51;14.45;;;3.15;;
23470;SDS011;11908;50.806;4.424;2023-08-21T08:41:24;11.80;;;3.30;;
23470;SDS011;11908;50.806;4.424;2023-08-21T08:43:56;9.73;;;2.25;;
23470;SDS011;11908;50.806;4.424;2023-08-21T08:46:25;13.68;;;2.88;;
23470;SDS011;11908;50.806;4.424;2023-08-21T08:48:53;5.47;;;2.08;;
23470;SDS011;11908;50.806;4.424;2023-08-21T08:51:19;13.50;;;3.20;;
23470;SDS011;11908;50.806;4.424;2023-08-21T08:53:47;8.35;;;2.70;;
23470;SDS011;11908;50.806;4.424;2023-08-21T08:56:12;5.70;;;1.88;;
23470;SDS011;11908;50.806;4.424;2023-08-21T08:58:38;10.23;;;2.80;;
23470;SDS011;11908;50.806;4.424;2023-08-21T09:01:07;11.52;;;2.00;;
23470;SDS011;11908;50.806;4.424;2023-08-21T09:03:35;10.57;;;2.03;;
23470;SDS011;11908;50.806;4.424;2023-08-21T09:06:01;8.93;;;2.40;;
23470;SDS011;11908;50.806;4.424;2023-08-21T09:08:28;7.63;;;1.98;;
23470;SDS011;11908;50.806;4.424;2023-08-21T09:10:54;7.07;;;2.25;;
23470;SDS011;11908;50.806;4.424;2023-08-21T09:13:20;9.10;;;2.13;;
23470;SDS011;11908;50.806;4.424;2023-08-21T09:15:47;8.20;;;1.70;;
23470;SDS011;11908;50.806;4.424;2023-08-21T09:18:14;5.72;;;1.92;;
23470;SDS011;11908;50.806;4.424;2023-08-21T09:20:41;5.55;;;1.88;;
23470;SDS011;11908;50.806;4.424;2023-08-21T09:23:07;10.70;;;2.38;;
23470;SDS011;11908;50.806;4.424;2023-08-21T09:25:39;23.23;;;2.45;;
23470;SDS011;11908;50.806;4.424;2023-08-21T09:28:06;6.57;;;1.77;;
23470;SDS011;11908;50.806;4.424;2023-08-21T09:33:11;9.55;;;2.10;;
23470;SDS011;11908;50.806;4.424;2023-08-21T09:35:37;15.90;;;2.75;;
23470;SDS011;11908;50.806;4.424;2023-08-21T09:38:03;9.75;;;2.60;;
23470;SDS011;11908;50.806;4.424;2023-08-21T09:40:29;7.25;;;2.03;;
23470;SDS011;11908;50.806;4.424;2023-08-21T09:42:55;6.03;;;1.65;;
23470;SDS011;11908;50.806;4.424;2023-08-21T09:45:25;7.70;;;1.98;;
23470;SDS011;11908;50.806;4.424;2023-08-21T09:47:52;7.65;;;1.98;;
23470;SDS011;11908;50.806;4.424;2023-08-21T09:50:18;9.18;;;2.53;;
23470;SDS011;11908;50.806;4.424;2023-08-21T09:52:45;8.75;;;2.65;;
23470;SDS011;11908;50.806;4.424;2023-08-21T09:55:12;9.65;;;2.38;;
23470;SDS011;11908;50.806;4.424;2023-08-21T09:57:39;12.40;;;2.85;;
23470;SDS011;11908;50.806;4.424;2023-08-21T10:00:06;18.73;;;3.28;;
23470;SDS011;11908;50.806;4.424;2023-08-21T10:02:43;11.05;;;2.78;;
23470;SDS011;11908;50.806;4.424;2023-08-21T10:05:18;9.10;;;2.47;;
23470;SDS011;11908;50.806;4.424;2023-08-21T10:07:48;11.38;;;2.53;;
23470;SDS011;11908;50.806;4.424;2023-08-21T10:10:15;8.55;;;2.50;;
23470;SDS011;11908;50.806;4.424;2023-08-21T10:12:41;11.00;;;2.47;;
23470;SDS011;11908;50.806;4.424;2023-08-21T10:15:07;9.75;;;1.98;;
23470;SDS011;11908;50.806;4.424;2023-08-21T10:17:36;6.40;;;2.00;;
23470;SDS011;11908;50.806;4.424;2023-08-21T10:20:06;10.48;;;2.42;;
23470;SDS011;11908;50.806;4.424;2023-08-21T10:22:39;5.10;;;2.25;;
23470;SDS011;11908;50.806;4.424;2023-08-21T10:25:25;11.00;;;2.28;;
23470;SDS011;11908;50.806;4.424;2023-08-21T10:28:00;8.20;;;2.08;;
23470;SDS011;11908;50.806;4.424;2023-08-21T10:30:28;7.38;;;1.90;;
23470;SDS011;11908;50.806;4.424;2023-08-21T10:32:58;7.68;;;1.80;;
23470;SDS011;11908;50.806;4.424;2023-08-21T10:35:33;7.93;;;2.00;;
23470;SDS011;11908;50.806;4.424;2023-08-21T10:40:36;12.18;;;1.90;;
23470;SDS011;11908;50.806;4.424;2023-08-21T10:43:02;9.23;;;1.92;;
23470;SDS011;11908;50.806;4.424;2023-08-21T10:45:29;10.10;;;2.33;;
23470;SDS011;11908;50.806;4.424;2023-08-21T10:47:56;7.50;;;2.45;;
23470;SDS011;11908;50.806;4.424;2023-08-21T10:50:23;6.50;;;1.90;;
23470;SDS011;11908;50.806;4.424;2023-08-21T10:52:49;7.63;;;2.05;;
23470;SDS011;11908;50.806;4.424;2023-08-21T10:55:17;6.97;;;1.80;;
23470;SDS011;11908;50.806;4.424;2023-08-21T10:57:45;9.68;;;2.38;;
23470;SDS011;11908;50.806;4.424;2023-08-21T11:00:12;5.03;;;1.83;;
23470;SDS011;11908;50.806;4.424;2023-08-21T11:02:43;5.10;;;1.50;;
23470;SDS011;11908;50.806;4.424;2023-08-21T11:05:11;9.52;;;2.45;;
23470;SDS011;11908;50.806;4.424;2023-08-21T11:10:17;8.40;;;1.40;;
23470;SDS011;11908;50.806;4.424;2023-08-21T11:12:52;6.13;;;1.70;;
23470;SDS011;11908;50.806;4.424;2023-08-21T11:15:23;5.20;;;1.40;;
23470;SDS011;11908;50.806;4.424;2023-08-21T11:17:57;4.38;;;1.42;;
23470;SDS011;11908;50.806;4.424;2023-08-21T11:20:28;7.78;;;1.80;;
23470;SDS011;11908;50.806;4.424;2023-08-21T11:23:01;5.53;;;1.45;;
23470;SDS011;11908;50.806;4.424;2023-08-21T11:25:31;7.35;;;2.00;;
23470;SDS011;11908;50.806;4.424;2023-08-21T11:27:58;4.07;;;1.25;;
23470;SDS011;11908;50.806;4.424;2023-08-21T11:30:24;5.07;;;1.30;;
23470;SDS011;11908;50.806;4.424;2023-08-21T11:33:09;4.38;;;1.50;;
23470;SDS011;11908;50.806;4.424;2023-08-21T11:35:38;5.18;;;1.10;;
23470;SDS011;11908;50.806;4.424;2023-08-21T11:38:04;9.10;;;2.05;;
23470;SDS011;11908;50.806;4.424;2023-08-21T11:40:30;4.40;;;1.17;;
23470;SDS011;11908;50.806;4.424;2023-08-21T11:43:00;4.85;;;1.30;;
23470;SDS011;11908;50.806;4.424;2023-08-21T11:45:25;5.78;;;1.45;;
23470;SDS011;11908;50.806;4.424;2023-08-21T11:47:51;4.05;;;1.45;;
23470;SDS011;11908;50.806;4.424;2023-08-21T11:50:21;3.83;;;1.35;;
23470;SDS011;11908;50.806;4.424;2023-08-21T11:52:47;5.35;;;1.60;;
23470;SDS011;11908;50.806;4.424;2023-08-21T11:55:15;6.97;;;1.10;;
23470;SDS011;11908;50.806;4.424;2023-08-21T11:57:46;3.85;;;1.17;;
23470;SDS011;11908;50.806;4.424;2023-08-21T12:00:16;6.10;;;1.20;;
23470;SDS011;11908;50.806;4.424;2023-08-21T12:03:05;3.85;;;1.30;;
23470;SDS011;11908;50.806;4.424;2023-08-21T12:05:33;6.10;;;1.27;;
23470;SDS011;11908;50.806;4.424;2023-08-21T12:07:59;7.22;;;1.52;;
23470;SDS011;11908;50.806;4.424;2023-08-21T12:10:28;4.70;;;1.05;;
23470;SDS011;11908;50.806;4.424;2023-08-21T12:12:54;8.05;;;1.90;;
23470;SDS011;11908;50.806;4.424;2023-08-21T12:15:21;4.53;;;1.33;;
23470;SDS011;11908;50.806;4.424;2023-08-21T12:17:46;6.70;;;2.00;;
23470;SDS011;11908;50.806;4.424;2023-08-21T12:20:12;7.18;;;1.30;;
23470;SDS011;11908;50.806;4.424;2023-08-21T12:22:39;6.63;;;1.50;;
23470;SDS011;11908;50.806;4.424;2023-08-21T12:25:05;7.55;;;1.73;;
23470;SDS011;11908;50.806;4.424;2023-08-21T12:27:32;3.88;;;1.50;;
23470;SDS011;11908;50.806;4.424;2023-08-21T12:29:57;7.45;;;1.70;;
23470;SDS011;11908;50.806;4.424;2023-08-21T12:32:23;9.43;;;1.70;;
23470;SDS011;11908;50.806;4.424;2023-08-21T12:34:49;5.88;;;1.38;;
23470;SDS011;11908;50.806;4.424;2023-08-21T12:37:14;9.68;;;2.13;;
23470;SDS011;11908;50.806;4.424;2023-08-21T12:39:40;7.82;;;1.48;;
23470;SDS011;11908;50.806;4.424;2023-08-21T12:42:06;7.28;;;1.30;;
23470;SDS011;11908;50.806;4.424;2023-08-21T12:44:33;5.22;;;1.13;;
23470;SDS011;11908;50.806;4.424;2023-08-21T12:47:01;6.18;;;1.45;;
23470;SDS011;11908;50.806;4.424;2023-08-21T12:49:27;6.05;;;1.50;;
23470;SDS011;11908;50.806;4.424;2023-08-21T12:51:53;5.35;;;1.27;;
23470;SDS011;11908;50.806;4.424;2023-08-21T12:54:20;7.35;;;1.42;;
23470;SDS011;11908;50.806;4.424;2023-08-21T12:56:46;6.80;;;1.33;;
23470;SDS011;11908;50.806;4.424;2023-08-21T12:59:12;11.77;;;1.52;;
23470;SDS011;11908;50.806;4.424;2023-08-21T13:01:38;25.50;;;2.45;;
23470;SDS011;11908;50.806;4.424;2023-08-21T13:04:04;9.25;;;1.50;;
23470;SDS011;11908;50.806;4.424;2023-08-21T13:06:30;9.70;;;1.77;;
23470;SDS011;11908;50.806;4.424;2023-08-21T13:08:55;4.68;;;1.60;;
23470;SDS011;11908;50.806;4.424;2023-08-21T13:11:21;7.05;;;1.17;;
23470;SDS011;11908;50.806;4.424;2023-08-21T13:13:47;7.95;;;1.70;;
23470;SDS011;11908;50.806;4.424;2023-08-21T13:16:13;63.90;;;4.55;;
23470;SDS011;11908;50.806;4.424;2023-08-21T13:18:39;35.03;;;3.40;;
23470;SDS011;11908;50.806;4.424;2023-08-21T13:21:04;11.13;;;1.55;;
23470;SDS011;11908;50.806;4.424;2023-08-21T13:23:30;37.60;;;2.00;;
23470;SDS011;11908;50.806;4.424;2023-08-21T13:25:56;2.95;;;1.30;;
23470;SDS011;11908;50.806;4.424;2023-08-21T13:28:23;4.95;;;1.42;;
23470;SDS011;11908;50.806;4.424;2023-08-21T13:30:49;20.25;;;2.20;;
23470;SDS011;11908;50.806;4.424;2023-08-21T13:33:14;9.65;;;1.83;;
23470;SDS011;11908;50.806;4.424;2023-08-21T13:35:43;8.68;;;1.58;;
23470;SDS011;11908;50.806;4.424;2023-08-21T13:38:09;25.10;;;2.47;;
23470;SDS011;11908;50.806;4.424;2023-08-21T13:40:35;13.13;;;1.65;;
23470;SDS011;11908;50.806;4.424;2023-08-21T13:43:01;5.30;;;1.67;;
23470;SDS011;11908;50.806;4.424;2023-08-21T13:45:28;9.85;;;2.13;;
23470;SDS011;11908;50.806;4.424;2023-08-21T13:47:54;5.18;;;1.30;;
23470;SDS011;11908;50.806;4.424;2023-08-21T13:50:19;4.03;;;1.52;;
23470;SDS011;11908;50.806;4.424;2023-08-21T13:52:45;6.03;;;1.77;;
23470;SDS011;11908;50.806;4.424;2023-08-21T13:55:12;8.13;;;2.03;;
23470;SDS011;11908;50.806;4.424;2023-08-21T13:57:39;5.43;;;1.40;;
23470;SDS011;11908;50.806;4.424;2023-08-21T14:00:06;7.10;;;1.52;;
23470;SDS011;11908;50.806;4.424;2023-08-21T14:02:33;4.07;;;1.52;;
23470;SDS011;11908;50.806;4.424;2023-08-21T14:04:59;3.78;;;1.52;;
23470;SDS011;11908;50.806;4.424;2023-08-21T14:07:26;4.47;;;1.90;;
23470;SDS011;11908;50.806;4.424;2023-08-21T14:09:51;4.85;;;1.70;;
23470;SDS011;11908;50.806;4.424;2023-08-21T14:12:17;10.82;;;1.65;;
23470;SDS011;11908;50.806;4.424;2023-08-21T14:14:43;4.43;;;1.55;;
23470;SDS011;11908;50.806;4.424;2023-08-21T14:17:09;32.63;;;2.28;;
23470;SDS011;11908;50.806;4.424;2023-08-21T14:19:35;5.78;;;1.48;;
23470;SDS011;11908;50.806;4.424;2023-08-21T14:22:01;5.72;;;1.50;;
23470;SDS011;11908;50.806;4.424;2023-08-21T14:24:28;3.47;;;1.15;;
23470;SDS011;11908;50.806;4.424;2023-08-21T14:26:53;4.82;;;1.40;;
23470;SDS011;11908;50.806;4.424;2023-08-21T14:29:19;25.95;;;2.38;;
23470;SDS011;11908;50.806;4.424;2023-08-21T14:31:45;3.97;;;1.40;;
23470;SDS011;11908;50.806;4.424;2023-08-21T14:34:12;4.68;;;1.33;;
23470;SDS011;11908;50.806;4.424;2023-08-21T14:36:38;3.95;;;1.20;;
23470;SDS011;11908;50.806;4.424;2023-08-21T14:39:03;2.90;;;1.10;;
23470;SDS011;11908;50.806;4.424;2023-08-21T14:41:29;3.17;;;1.17;;
23470;SDS011;11908;50.806;4.424;2023-08-21T14:43:55;2.67;;;1.27;;
23470;SDS011;11908;50.806;4.424;2023-08-21T14:46:20;8.13;;;1.17;;
23470;SDS011;11908;50.806;4.424;2023-08-21T14:48:46;5.60;;;0.95;;
23470;SDS011;11908;50.806;4.424;2023-08-21T14:51:12;4.45;;;1.00;;
23470;SDS011;11908;50.806;4.424;2023-08-21T14:53:38;2.83;;;0.85;;
23470;SDS011;11908;50.806;4.424;2023-08-21T14:56:03;2.15;;;1.05;;
23470;SDS011;11908;50.806;4.424;2023-08-21T14:58:29;2.25;;;0.80;;
23470;SDS011;11908;50.806;4.424;2023-08-21T15:00:55;2.20;;;1.10;;